EZY132H EGHQ-EGKK
Flight info
| Callsign | EZY132H |
|---|---|
| Flight time | 1h 34m |
| Altitude | 25000 |
| Route | DAWLY DCT ELRIP DCT OTMET |
| Aircraft | A320/M-SDE3FGHIRWY/LB1 |
Departure
| Time | 2026-04-22 18:59 |
|---|---|
| Airport | Cornwall Airport Newquay (EGHQ) |
Arrival
| Time | 2026-04-22 20:33 |
|---|---|
| Airport | London Gatwick Airport (EGKK) |
| Time | Latitude | Longitude | Altitude | Speed | Heading |
|---|---|---|---|---|---|
| 2026-04-22 18:51 | 50.44653 | -5.00381 | 324 ft | 0 kts | 74° |
| 2026-04-22 18:55 | 50.44648 | -5.00404 | 324 ft | 2 kts | 58° |
| 2026-04-22 18:55 | 50.44637 | -5.00424 | 322 ft | 2 kts | 23° |
| 2026-04-22 18:56 | 50.44621 | -5.00428 | 324 ft | 2 kts | 333° |
| 2026-04-22 18:56 | 50.44610 | -5.00415 | 325 ft | 1 kts | 304° |
| 2026-04-22 18:56 | 50.44607 | -5.00411 | 326 ft | 0 kts | 298° |
| 2026-04-22 18:56 | 50.44614 | -5.00430 | 323 ft | 4 kts | 299° |
| 2026-04-22 18:57 | 50.44632 | -5.00479 | 325 ft | 7 kts | 300° |
| 2026-04-22 18:57 | 50.44660 | -5.00552 | 324 ft | 9 kts | 301° |
| 2026-04-22 18:57 | 50.44695 | -5.00641 | 321 ft | 10 kts | 301° |
| 2026-04-22 18:57 | 50.44732 | -5.00742 | 319 ft | 11 kts | 299° |
| 2026-04-22 18:58 | 50.44772 | -5.00852 | 316 ft | 12 kts | 299° |
| 2026-04-22 18:58 | 50.44799 | -5.00979 | 313 ft | 13 kts | 275° |
| 2026-04-22 18:58 | 50.44782 | -5.01111 | 311 ft | 12 kts | 222° |
| 2026-04-22 18:58 | 50.44706 | -5.01158 | 312 ft | 11 kts | 176° |
| 2026-04-22 18:59 | 50.44663 | -5.01097 | 312 ft | 8 kts | 121° |
| 2026-04-22 18:59 | 50.44590 | -5.00907 | 315 ft | 53 kts | 121° |
| 2026-04-22 18:59 | 50.44272 | -5.00044 | 365 ft | 123 kts | 120° |
| 2026-04-22 18:59 | 50.43850 | -4.98966 | 1061 ft | 113 kts | 118° |
| 2026-04-22 19:00 | 50.43411 | -4.97834 | 1560 ft | 131 kts | 121° |
| 2026-04-22 19:00 | 50.42911 | -4.96477 | 2021 ft | 161 kts | 117° |
| 2026-04-22 19:00 | 50.42769 | -4.94662 | 2505 ft | 187 kts | 86° |
| 2026-04-22 19:00 | 50.43022 | -4.92505 | 2907 ft | 212 kts | 86° |
| 2026-04-22 19:01 | 50.43270 | -4.90097 | 3408 ft | 236 kts | 86° |
| 2026-04-22 19:01 | 50.43536 | -4.87490 | 4136 ft | 247 kts | 85° |
| 2026-04-22 19:01 | 50.43817 | -4.84813 | 5015 ft | 253 kts | 84° |
| 2026-04-22 19:01 | 50.44105 | -4.82078 | 5915 ft | 257 kts | 84° |
| 2026-04-22 19:02 | 50.44394 | -4.79313 | 6817 ft | 261 kts | 85° |
| 2026-04-22 19:02 | 50.44687 | -4.76519 | 7603 ft | 267 kts | 84° |
| 2026-04-22 19:02 | 50.44985 | -4.73638 | 8402 ft | 274 kts | 85° |
| 2026-04-22 19:02 | 50.45290 | -4.70654 | 9198 ft | 280 kts | 85° |
| 2026-04-22 19:03 | 50.45603 | -4.67598 | 9965 ft | 289 kts | 84° |
| 2026-04-22 19:03 | 50.45929 | -4.64422 | 10543 ft | 303 kts | 86° |
| 2026-04-22 19:03 | 50.46269 | -4.61052 | 10841 ft | 326 kts | 82° |
| 2026-04-22 19:03 | 50.46638 | -4.57383 | 11131 ft | 348 kts | 83° |
| 2026-04-22 19:04 | 50.47023 | -4.53605 | 11721 ft | 358 kts | 83° |
| 2026-04-22 19:04 | 50.47423 | -4.49689 | 12477 ft | 363 kts | 84° |
| 2026-04-22 19:04 | 50.47826 | -4.45762 | 13292 ft | 367 kts | 84° |
| 2026-04-22 19:04 | 50.48235 | -4.41742 | 14055 ft | 373 kts | 83° |
| 2026-04-22 19:05 | 50.48639 | -4.37739 | 14744 ft | 377 kts | 83° |
| 2026-04-22 19:05 | 50.49053 | -4.33618 | 15466 ft | 381 kts | 84° |
| 2026-04-22 19:05 | 50.49462 | -4.29524 | 16147 ft | 386 kts | 83° |
| 2026-04-22 19:05 | 50.49876 | -4.25335 | 16891 ft | 389 kts | 82° |
| 2026-04-22 19:06 | 50.50297 | -4.21072 | 17576 ft | 394 kts | 83° |
| 2026-04-22 19:06 | 50.50716 | -4.16811 | 18223 ft | 399 kts | 82° |
| 2026-04-22 19:06 | 50.51120 | -4.12733 | 18907 ft | 399 kts | 83° |
| 2026-04-22 19:07 | 50.51976 | -4.04037 | 20159 ft | 404 kts | 84° |
| 2026-04-22 19:07 | 50.52397 | -3.99710 | 20745 ft | 406 kts | 83° |
| 2026-04-22 19:07 | 50.52829 | -3.95292 | 21302 ft | 409 kts | 82° |
| 2026-04-22 19:07 | 50.53255 | -3.90862 | 21828 ft | 412 kts | 84° |
| 2026-04-22 19:08 | 50.53684 | -3.86342 | 22348 ft | 416 kts | 84° |
| 2026-04-22 19:08 | 50.54109 | -3.81840 | 22871 ft | 418 kts | 83° |
| 2026-04-22 19:08 | 50.54534 | -3.77329 | 23344 ft | 421 kts | 84° |
| 2026-04-22 19:08 | 50.54950 | -3.72893 | 23785 ft | 424 kts | 83° |
| 2026-04-22 19:09 | 50.55379 | -3.68323 | 24178 ft | 426 kts | 84° |
| 2026-04-22 19:09 | 50.55816 | -3.63683 | 24472 ft | 430 kts | 83° |
| 2026-04-22 19:09 | 50.56113 | -3.60519 | 24552 ft | 436 kts | 83° |
| 2026-04-22 19:09 | 50.56709 | -3.54130 | 24716 ft | 446 kts | 83° |
| 2026-04-22 19:10 | 50.57152 | -3.49324 | 24828 ft | 453 kts | 83° |
| 2026-04-22 19:10 | 50.57615 | -3.44385 | 24961 ft | 459 kts | 82° |
| 2026-04-22 19:10 | 50.58145 | -3.39393 | 25071 ft | 464 kts | 82° |
| 2026-04-22 19:10 | 50.58736 | -3.34373 | 25215 ft | 468 kts | 80° |
| 2026-04-22 19:11 | 50.59359 | -3.29307 | 25257 ft | 474 kts | 81° |
| 2026-04-22 19:11 | 50.59998 | -3.24177 | 25251 ft | 480 kts | 80° |
| 2026-04-22 19:11 | 50.60627 | -3.19010 | 25254 ft | 483 kts | 79° |
| 2026-04-22 19:11 | 50.61236 | -3.13845 | 25255 ft | 486 kts | 80° |
| 2026-04-22 19:12 | 50.61841 | -3.08591 | 25258 ft | 486 kts | 80° |
| 2026-04-22 19:12 | 50.62434 | -3.03334 | 25257 ft | 487 kts | 81° |
| 2026-04-22 19:12 | 50.63023 | -2.98071 | 25256 ft | 487 kts | 81° |
| 2026-04-22 19:12 | 50.63607 | -2.92857 | 25259 ft | 487 kts | 81° |
| 2026-04-22 19:13 | 50.64191 | -2.87652 | 25261 ft | 485 kts | 81° |
| 2026-04-22 19:13 | 50.64765 | -2.82554 | 25254 ft | 461 kts | 81° |
| 2026-04-22 19:13 | 50.65311 | -2.77692 | 25258 ft | 439 kts | 80° |
| 2026-04-22 19:13 | 50.65823 | -2.73103 | 25265 ft | 419 kts | 80° |
| 2026-04-22 19:14 | 50.66317 | -2.68644 | 25269 ft | 407 kts | 80° |
| 2026-04-22 19:14 | 50.66800 | -2.64255 | 25269 ft | 403 kts | 80° |
| 2026-04-22 19:14 | 50.67273 | -2.59935 | 25276 ft | 403 kts | 80° |
| 2026-04-22 19:14 | 50.67751 | -2.55562 | 25276 ft | 402 kts | 80° |
| 2026-04-22 19:15 | 50.68006 | -2.52651 | 25276 ft | 401 kts | 85° |
| 2026-04-22 19:15 | 50.68009 | -2.46823 | 25281 ft | 402 kts | 94° |
| 2026-04-22 19:15 | 50.67827 | -2.42506 | 25283 ft | 401 kts | 94° |
| 2026-04-22 19:15 | 50.67646 | -2.38172 | 25281 ft | 401 kts | 95° |
| 2026-04-22 19:16 | 50.67458 | -2.33755 | 25284 ft | 402 kts | 94° |
| 2026-04-22 19:16 | 50.67272 | -2.29349 | 25286 ft | 401 kts | 94° |
| 2026-04-22 19:16 | 50.67087 | -2.25038 | 25282 ft | 401 kts | 93° |
| 2026-04-22 19:16 | 50.66898 | -2.20645 | 25280 ft | 401 kts | 93° |
| 2026-04-22 19:17 | 50.66780 | -2.17930 | 25280 ft | 401 kts | 94° |
| 2026-04-22 19:17 | 50.66519 | -2.11955 | 25279 ft | 400 kts | 94° |
| 2026-04-22 19:17 | 50.66390 | -2.09055 | 25211 ft | 399 kts | 94° |
| 2026-04-22 19:17 | 50.66195 | -2.04737 | 24787 ft | 396 kts | 94° |
| 2026-04-22 19:18 | 50.66118 | -2.00394 | 24359 ft | 392 kts | 89° |
| 2026-04-22 19:18 | 50.66170 | -1.96091 | 23906 ft | 390 kts | 89° |
| 2026-04-22 19:18 | 50.66222 | -1.91834 | 23427 ft | 386 kts | 89° |
| 2026-04-22 19:18 | 50.66274 | -1.87611 | 22948 ft | 383 kts | 89° |
| 2026-04-22 19:19 | 50.66324 | -1.83431 | 22515 ft | 378 kts | 88° |
| 2026-04-22 19:19 | 50.66372 | -1.79351 | 22140 ft | 373 kts | 87° |
| 2026-04-22 19:19 | 50.66411 | -1.75472 | 21720 ft | 370 kts | 88° |
| 2026-04-22 19:19 | 50.66451 | -1.71541 | 21273 ft | 367 kts | 88° |
| 2026-04-22 19:20 | 50.66500 | -1.67517 | 20822 ft | 365 kts | 87° |
| 2026-04-22 19:20 | 50.66540 | -1.63521 | 20378 ft | 363 kts | 88° |
| 2026-04-22 19:20 | 50.66572 | -1.59556 | 19939 ft | 360 kts | 88° |
| 2026-04-22 19:20 | 50.66604 | -1.55717 | 19523 ft | 358 kts | 88° |
| 2026-04-22 19:21 | 50.66622 | -1.51800 | 19103 ft | 356 kts | 89° |
| 2026-04-22 19:21 | 50.66588 | -1.47941 | 18701 ft | 355 kts | 91° |
| 2026-04-22 19:21 | 50.66530 | -1.44302 | 18357 ft | 352 kts | 91° |
| 2026-04-22 19:21 | 50.66458 | -1.40439 | 18282 ft | 352 kts | 91° |
| 2026-04-22 19:22 | 50.66437 | -1.36611 | 18301 ft | 351 kts | 86° |
| 2026-04-22 19:22 | 50.66767 | -1.32833 | 18304 ft | 349 kts | 75° |
| 2026-04-22 19:22 | 50.67493 | -1.29192 | 18309 ft | 347 kts | 66° |
| 2026-04-22 19:22 | 50.68414 | -1.25660 | 18307 ft | 348 kts | 66° |
| 2026-04-22 19:23 | 50.69314 | -1.22167 | 18313 ft | 348 kts | 67° |
| 2026-04-22 19:23 | 50.70224 | -1.18597 | 18310 ft | 348 kts | 67° |
| 2026-04-22 19:23 | 50.71129 | -1.15048 | 18311 ft | 348 kts | 67° |
| 2026-04-22 19:23 | 50.72008 | -1.11597 | 18315 ft | 348 kts | 66° |
| 2026-04-22 19:24 | 50.72908 | -1.08045 | 18312 ft | 348 kts | 68° |
| 2026-04-22 19:24 | 50.73807 | -1.04492 | 18316 ft | 348 kts | 67° |
| 2026-04-22 19:24 | 50.74698 | -1.00960 | 17763 ft | 342 kts | 68° |
| 2026-04-22 19:24 | 50.75646 | -0.97186 | 14943 ft | 398 kts | 69° |
| 2026-04-22 19:25 | 50.76729 | -0.92825 | 12355 ft | 447 kts | 71° |
| 2026-04-22 19:25 | 50.77661 | -0.89083 | 12347 ft | 435 kts | 69° |
| 2026-04-22 19:25 | 50.78773 | -0.84934 | 12543 ft | 404 kts | 69° |
| 2026-04-22 19:25 | 50.79847 | -0.80917 | 11750 ft | 399 kts | 69° |
| 2026-04-22 19:26 | 50.80934 | -0.76778 | 10977 ft | 397 kts | 70° |
| 2026-04-22 19:26 | 50.81925 | -0.72795 | 10405 ft | 386 kts | 75° |
| 2026-04-22 19:26 | 50.82536 | -0.68690 | 9660 ft | 380 kts | 82° |
| 2026-04-22 19:26 | 50.82881 | -0.64609 | 9192 ft | 367 kts | 85° |
| 2026-04-22 19:27 | 50.83136 | -0.60719 | 8903 ft | 351 kts | 86° |
| 2026-04-22 19:27 | 50.83395 | -0.57117 | 8722 ft | 335 kts | 84° |
| 2026-04-22 19:27 | 50.83707 | -0.53549 | 8573 ft | 318 kts | 83° |
| 2026-04-22 19:27 | 50.84051 | -0.50175 | 8431 ft | 304 kts | 83° |
| 2026-04-22 19:28 | 50.84411 | -0.46951 | 8314 ft | 289 kts | 82° |
| 2026-04-22 19:28 | 50.84765 | -0.43910 | 8317 ft | 272 kts | 82° |
| 2026-04-22 19:28 | 50.85100 | -0.41061 | 8322 ft | 255 kts | 82° |
| 2026-04-22 19:28 | 50.85408 | -0.38425 | 8333 ft | 239 kts | 83° |
| 2026-04-22 19:29 | 50.85702 | -0.35867 | 8331 ft | 234 kts | 82° |
| 2026-04-22 19:29 | 50.86241 | -0.33442 | 8171 ft | 237 kts | 58° |
| 2026-04-22 19:29 | 50.87499 | -0.31738 | 7819 ft | 245 kts | 27° |
| 2026-04-22 19:29 | 50.89159 | -0.31213 | 7440 ft | 252 kts | 5° |
| 2026-04-22 19:30 | 50.90325 | -0.31214 | 7341 ft | 252 kts | 2° |
| 2026-04-22 19:30 | 50.92681 | -0.31323 | 7282 ft | 255 kts | 1° |
| 2026-04-22 19:30 | 50.94464 | -0.31423 | 6939 ft | 254 kts | 1° |
| 2026-04-22 19:30 | 50.96226 | -0.31528 | 6588 ft | 253 kts | 1° |
| 2026-04-22 19:31 | 50.97973 | -0.31797 | 6238 ft | 253 kts | 345° |
| 2026-04-22 19:31 | 50.99483 | -0.33206 | 5885 ft | 255 kts | 313° |
| 2026-04-22 19:31 | 51.00481 | -0.35520 | 5513 ft | 254 kts | 298° |
| 2026-04-22 19:31 | 51.01309 | -0.38005 | 5161 ft | 254 kts | 296° |
| 2026-04-22 19:32 | 51.02102 | -0.40471 | 4797 ft | 253 kts | 296° |
| 2026-04-22 19:32 | 51.02902 | -0.42971 | 4427 ft | 253 kts | 296° |
| 2026-04-22 19:32 | 51.03690 | -0.45465 | 4169 ft | 248 kts | 296° |
| 2026-04-22 19:32 | 51.04434 | -0.47852 | 4037 ft | 237 kts | 296° |
| 2026-04-22 19:33 | 51.05143 | -0.50158 | 3911 ft | 227 kts | 296° |
| 2026-04-22 19:33 | 51.05820 | -0.52370 | 3779 ft | 218 kts | 300° |
| 2026-04-22 19:33 | 51.06828 | -0.54064 | 3599 ft | 204 kts | 339° |
| 2026-04-22 19:33 | 51.08144 | -0.54496 | 3287 ft | 191 kts | 15° |
| 2026-04-22 19:34 | 51.09327 | -0.53797 | 3047 ft | 175 kts | 46° |
| 2026-04-22 19:34 | 51.09989 | -0.52646 | 3003 ft | 168 kts | 67° |
| 2026-04-22 19:34 | 51.10363 | -0.50895 | 3006 ft | 159 kts | 81° |
| 2026-04-22 19:34 | 51.10597 | -0.49241 | 3021 ft | 147 kts | 82° |
| 2026-04-22 19:35 | 51.10817 | -0.47677 | 3031 ft | 144 kts | 82° |
| 2026-04-22 19:35 | 51.11034 | -0.46130 | 3029 ft | 144 kts | 82° |
| 2026-04-22 19:35 | 51.11253 | -0.44574 | 3013 ft | 143 kts | 82° |
| 2026-04-22 19:35 | 51.11469 | -0.43038 | 2984 ft | 143 kts | 82° |
| 2026-04-22 19:36 | 51.11676 | -0.41559 | 2868 ft | 140 kts | 82° |
| 2026-04-22 19:36 | 51.11886 | -0.40061 | 2712 ft | 139 kts | 82° |
| 2026-04-22 19:36 | 51.12091 | -0.38598 | 2545 ft | 137 kts | 81° |
| 2026-04-22 19:36 | 51.12297 | -0.37130 | 2361 ft | 135 kts | 81° |
| 2026-04-22 19:37 | 51.12499 | -0.35685 | 2184 ft | 134 kts | 81° |
| 2026-04-22 19:37 | 51.12700 | -0.34245 | 1998 ft | 134 kts | 80° |
| 2026-04-22 19:37 | 51.12902 | -0.32796 | 1806 ft | 133 kts | 80° |
| 2026-04-22 19:37 | 51.13102 | -0.31362 | 1630 ft | 134 kts | 79° |
| 2026-04-22 19:38 | 51.13306 | -0.29897 | 1440 ft | 135 kts | 78° |
| 2026-04-22 19:38 | 51.13508 | -0.28445 | 1257 ft | 137 kts | 79° |
| 2026-04-22 19:38 | 51.13710 | -0.26992 | 1047 ft | 127 kts | 77° |
| 2026-04-22 19:38 | 51.13913 | -0.25496 | 1490 ft | 136 kts | 80° |
| 2026-04-22 19:39 | 51.14105 | -0.24063 | 2454 ft | 134 kts | 81° |
| 2026-04-22 19:39 | 51.14343 | -0.22527 | 3034 ft | 158 kts | 79° |
| 2026-04-22 19:39 | 51.14613 | -0.20923 | 3105 ft | 140 kts | 79° |
| 2026-04-22 19:39 | 51.14867 | -0.19490 | 3117 ft | 131 kts | 79° |
| 2026-04-22 19:40 | 51.15130 | -0.17976 | 3168 ft | 151 kts | 79° |
| 2026-04-22 19:40 | 51.15398 | -0.16438 | 3186 ft | 144 kts | 79° |
| 2026-04-22 19:40 | 51.15472 | -0.14890 | 3476 ft | 144 kts | 88° |
| 2026-04-22 19:40 | 51.15592 | -0.13294 | 4117 ft | 144 kts | 91° |
| 2026-04-22 19:41 | 51.15621 | -0.11841 | 4104 ft | 127 kts | 98° |
| 2026-04-22 19:41 | 51.15139 | -0.10691 | 3601 ft | 148 kts | 154° |
| 2026-04-22 19:41 | 51.14124 | -0.10699 | 4482 ft | 145 kts | 183° |
| 2026-04-22 19:41 | 51.12924 | -0.10901 | 4526 ft | 202 kts | 175° |
| 2026-04-22 19:42 | 51.11400 | -0.10938 | 4555 ft | 234 kts | 179° |
| 2026-04-22 19:42 | 51.09881 | -0.11213 | 4564 ft | 204 kts | 184° |
| 2026-04-22 19:42 | 51.08566 | -0.11662 | 4475 ft | 185 kts | 189° |
| 2026-04-22 19:42 | 51.07388 | -0.12072 | 4428 ft | 166 kts | 182° |
| 2026-04-22 19:43 | 51.04559 | -0.12555 | 3880 ft | 264 kts | 180° |
| 2026-04-22 19:43 | 51.02622 | -0.12779 | 3854 ft | 284 kts | 181° |
| 2026-04-22 19:43 | 51.00732 | -0.13072 | 3980 ft | 260 kts | 181° |
| 2026-04-22 19:44 | 50.99005 | -0.13354 | 4002 ft | 240 kts | 178° |
| 2026-04-22 19:44 | 50.97437 | -0.13015 | 4005 ft | 215 kts | 159° |
| 2026-04-22 19:44 | 50.96150 | -0.12257 | 4000 ft | 196 kts | 150° |
| 2026-04-22 19:44 | 50.95190 | -0.10929 | 4002 ft | 181 kts | 115° |
| 2026-04-22 19:45 | 50.94973 | -0.08839 | 3991 ft | 227 kts | 92° |
| 2026-04-22 19:45 | 50.94966 | -0.05924 | 3792 ft | 285 kts | 91° |
| 2026-04-22 19:45 | 50.94977 | -0.02873 | 3891 ft | 262 kts | 91° |
| 2026-04-22 19:45 | 50.94989 | -0.00132 | 3956 ft | 239 kts | 91° |
| 2026-04-22 19:46 | 50.95004 | 0.02384 | 3999 ft | 220 kts | 91° |
| 2026-04-22 19:46 | 50.95023 | 0.04741 | 4016 ft | 213 kts | 91° |
| 2026-04-22 19:46 | 50.95043 | 0.07074 | 4025 ft | 211 kts | 91° |
| 2026-04-22 19:46 | 50.95057 | 0.09390 | 4036 ft | 210 kts | 91° |
| 2026-04-22 19:47 | 50.95072 | 0.11720 | 4046 ft | 211 kts | 91° |
| 2026-04-22 19:47 | 50.95090 | 0.14046 | 4052 ft | 211 kts | 91° |
| 2026-04-22 19:47 | 50.95130 | 0.15550 | 4059 ft | 212 kts | 85° |
| 2026-04-22 19:47 | 50.95761 | 0.18520 | 4069 ft | 219 kts | 55° |
| 2026-04-22 19:48 | 50.97023 | 0.19923 | 4080 ft | 231 kts | 22° |
| 2026-04-22 19:48 | 50.98662 | 0.20025 | 4093 ft | 243 kts | 349° |
| 2026-04-22 19:48 | 51.00154 | 0.18707 | 4097 ft | 251 kts | 315° |
| 2026-04-22 19:48 | 51.01069 | 0.16359 | 4097 ft | 254 kts | 291° |
| 2026-04-22 19:49 | 51.01651 | 0.13692 | 4091 ft | 254 kts | 287° |
| 2026-04-22 19:49 | 51.02173 | 0.11058 | 4082 ft | 255 kts | 287° |
| 2026-04-22 19:49 | 51.02696 | 0.08355 | 4073 ft | 254 kts | 286° |
| 2026-04-22 19:49 | 51.03213 | 0.05663 | 4066 ft | 254 kts | 286° |
| 2026-04-22 19:50 | 51.03564 | 0.02908 | 4059 ft | 253 kts | 271° |
| 2026-04-22 19:50 | 51.03591 | 0.00134 | 4048 ft | 253 kts | 267° |
| 2026-04-22 19:50 | 51.03559 | -0.02654 | 4008 ft | 252 kts | 266° |
| 2026-04-22 19:50 | 51.03518 | -0.05437 | 4008 ft | 252 kts | 266° |
| 2026-04-22 19:51 | 51.03472 | -0.08223 | 4012 ft | 252 kts | 266° |
| 2026-04-22 19:51 | 51.03433 | -0.11034 | 4012 ft | 251 kts | 266° |
| 2026-04-22 19:51 | 51.03398 | -0.13755 | 4012 ft | 251 kts | 266° |
| 2026-04-22 19:51 | 51.03356 | -0.16543 | 4008 ft | 251 kts | 266° |
| 2026-04-22 19:52 | 51.03310 | -0.19317 | 4009 ft | 252 kts | 266° |
| 2026-04-22 19:52 | 51.03266 | -0.22117 | 4010 ft | 252 kts | 266° |
| 2026-04-22 19:52 | 51.03224 | -0.24902 | 4011 ft | 251 kts | 266° |
| 2026-04-22 19:52 | 51.03180 | -0.27679 | 4012 ft | 251 kts | 266° |
| 2026-04-22 19:53 | 51.03137 | -0.30425 | 4009 ft | 251 kts | 266° |
| 2026-04-22 19:53 | 51.03092 | -0.33204 | 4009 ft | 251 kts | 266° |
| 2026-04-22 19:53 | 51.03063 | -0.35053 | 4012 ft | 251 kts | 266° |
| 2026-04-22 19:53 | 51.03004 | -0.38635 | 4006 ft | 231 kts | 266° |
| 2026-04-22 19:54 | 51.02965 | -0.41111 | 4006 ft | 216 kts | 266° |
| 2026-04-22 19:54 | 51.02938 | -0.43431 | 4005 ft | 210 kts | 266° |
| 2026-04-22 19:54 | 51.02918 | -0.45745 | 4007 ft | 210 kts | 266° |
| 2026-04-22 19:54 | 51.02898 | -0.48097 | 4013 ft | 210 kts | 266° |
| 2026-04-22 19:55 | 51.02869 | -0.50415 | 4011 ft | 210 kts | 266° |
| 2026-04-22 19:55 | 51.02836 | -0.52710 | 3862 ft | 207 kts | 266° |
| 2026-04-22 19:55 | 51.02910 | -0.55005 | 3583 ft | 210 kts | 286° |
| 2026-04-22 19:55 | 51.03668 | -0.56933 | 3277 ft | 206 kts | 327° |
| 2026-04-22 19:56 | 51.04896 | -0.58015 | 3042 ft | 201 kts | 343° |
| 2026-04-22 19:56 | 51.06211 | -0.58725 | 2988 ft | 195 kts | 4° |
| 2026-04-22 19:56 | 51.07462 | -0.58329 | 3015 ft | 181 kts | 34° |
| 2026-04-22 19:56 | 51.08558 | -0.57360 | 3013 ft | 180 kts | 40° |
| 2026-04-22 19:57 | 51.09501 | -0.56158 | 2934 ft | 171 kts | 62° |
| 2026-04-22 19:57 | 51.09960 | -0.54566 | 2821 ft | 162 kts | 77° |
| 2026-04-22 19:57 | 51.10249 | -0.52843 | 2646 ft | 159 kts | 81° |
| 2026-04-22 19:57 | 51.10479 | -0.51204 | 2648 ft | 146 kts | 82° |
| 2026-04-22 19:58 | 51.10639 | -0.49660 | 2810 ft | 140 kts | 85° |
| 2026-04-22 19:58 | 51.10824 | -0.48125 | 2853 ft | 142 kts | 82° |
| 2026-04-22 19:58 | 51.11036 | -0.46621 | 2793 ft | 141 kts | 81° |
| 2026-04-22 19:58 | 51.11252 | -0.45100 | 2693 ft | 139 kts | 82° |
| 2026-04-22 19:59 | 51.11447 | -0.43607 | 2554 ft | 137 kts | 82° |
| 2026-04-22 20:00 | 51.12603 | -0.34900 | 1797 ft | 133 kts | 76° |
| 2026-04-22 20:00 | 51.12850 | -0.33531 | 1610 ft | 134 kts | 78° |
| 2026-04-22 20:01 | 51.12996 | -0.32073 | 1579 ft | 133 kts | 82° |
| 2026-04-22 20:01 | 51.13211 | -0.30621 | 1476 ft | 136 kts | 77° |
| 2026-04-22 20:01 | 51.13422 | -0.29239 | 1318 ft | 137 kts | 82° |
| 2026-04-22 20:01 | 51.13598 | -0.27732 | 1107 ft | 138 kts | 76° |
| 2026-04-22 20:02 | 51.13761 | -0.26753 | 1000 ft | 139 kts | 77° |
| 2026-04-22 20:02 | 51.14022 | -0.24780 | 772 ft | 142 kts | 76° |
| 2026-04-22 20:02 | 51.14231 | -0.23221 | 595 ft | 143 kts | 78° |
| 2026-04-22 20:02 | 51.14379 | -0.22172 | 450 ft | 143 kts | 77° |
| 2026-04-22 20:03 | 51.14592 | -0.20608 | 264 ft | 146 kts | 76° |
| 2026-04-22 20:03 | 51.14803 | -0.19055 | 582 ft | 137 kts | 78° |
| 2026-04-22 20:03 | 51.14990 | -0.17623 | 1578 ft | 129 kts | 80° |
| 2026-04-22 20:03 | 51.15155 | -0.16259 | 2503 ft | 123 kts | 83° |
| 2026-04-22 20:04 | 51.15304 | -0.14913 | 3230 ft | 132 kts | 85° |
| 2026-04-22 20:04 | 51.15458 | -0.13422 | 3662 ft | 142 kts | 85° |
| 2026-04-22 20:04 | 51.15617 | -0.11805 | 4117 ft | 152 kts | 86° |
| 2026-04-22 20:04 | 51.15417 | -0.10098 | 4170 ft | 164 kts | 122° |
| 2026-04-22 20:05 | 51.14471 | -0.09087 | 4164 ft | 173 kts | 163° |
| 2026-04-22 20:05 | 51.13275 | -0.09091 | 4171 ft | 178 kts | 179° |
| 2026-04-22 20:05 | 51.12026 | -0.09319 | 4166 ft | 179 kts | 181° |
| 2026-04-22 20:05 | 51.10785 | -0.09575 | 4164 ft | 179 kts | 181° |
| 2026-04-22 20:06 | 51.09548 | -0.09836 | 4165 ft | 179 kts | 182° |
| 2026-04-22 20:06 | 51.08313 | -0.10125 | 4163 ft | 179 kts | 182° |
| 2026-04-22 20:06 | 51.07078 | -0.10414 | 4163 ft | 180 kts | 182° |
| 2026-04-22 20:06 | 51.05840 | -0.10705 | 4161 ft | 180 kts | 182° |
| 2026-04-22 20:07 | 51.04622 | -0.10992 | 4161 ft | 180 kts | 182° |
| 2026-04-22 20:07 | 51.03376 | -0.11292 | 4161 ft | 179 kts | 182° |
| 2026-04-22 20:07 | 51.02156 | -0.11583 | 4161 ft | 179 kts | 182° |
| 2026-04-22 20:07 | 51.00936 | -0.12081 | 4165 ft | 184 kts | 194° |
| 2026-04-22 20:08 | 50.99741 | -0.12864 | 4162 ft | 186 kts | 197° |
| 2026-04-22 20:08 | 50.98562 | -0.13684 | 4163 ft | 186 kts | 197° |
| 2026-04-22 20:08 | 50.97395 | -0.14498 | 4161 ft | 185 kts | 197° |
| 2026-04-22 20:08 | 50.96219 | -0.15313 | 4159 ft | 185 kts | 197° |
| 2026-04-22 20:09 | 50.95033 | -0.16139 | 4160 ft | 185 kts | 197° |
| 2026-04-22 20:09 | 50.93851 | -0.16982 | 4158 ft | 186 kts | 199° |
| 2026-04-22 20:09 | 50.92694 | -0.17883 | 4158 ft | 186 kts | 200° |
| 2026-04-22 20:09 | 50.91528 | -0.18806 | 4157 ft | 186 kts | 200° |
| 2026-04-22 20:10 | 50.90362 | -0.19733 | 4158 ft | 187 kts | 200° |
| 2026-04-22 20:10 | 50.89201 | -0.20665 | 4157 ft | 188 kts | 203° |
| 2026-04-22 20:10 | 50.88095 | -0.21797 | 4244 ft | 186 kts | 206° |
| 2026-04-22 20:10 | 50.86962 | -0.22348 | 4488 ft | 176 kts | 172° |
| 2026-04-22 20:11 | 50.85891 | -0.21564 | 4735 ft | 170 kts | 131° |
| 2026-04-22 20:11 | 50.85415 | -0.19910 | 4938 ft | 174 kts | 100° |
| 2026-04-22 20:11 | 50.85655 | -0.18044 | 4992 ft | 181 kts | 64° |
| 2026-04-22 20:11 | 50.86632 | -0.16744 | 4995 ft | 193 kts | 26° |
| 2026-04-22 20:12 | 50.87994 | -0.16661 | 5007 ft | 201 kts | 355° |
| 2026-04-22 20:12 | 50.89385 | -0.16985 | 5007 ft | 201 kts | 355° |
| 2026-04-22 20:12 | 50.90761 | -0.17318 | 5007 ft | 201 kts | 355° |
| 2026-04-22 20:12 | 50.92141 | -0.17653 | 5008 ft | 201 kts | 355° |
| 2026-04-22 20:13 | 50.93534 | -0.17985 | 4994 ft | 208 kts | 355° |
| 2026-04-22 20:13 | 50.95089 | -0.18345 | 4992 ft | 242 kts | 355° |
| 2026-04-22 20:13 | 50.96774 | -0.18740 | 4991 ft | 246 kts | 354° |
| 2026-04-22 20:13 | 50.98482 | -0.19137 | 5009 ft | 247 kts | 357° |
| 2026-04-22 20:14 | 51.00164 | -0.18861 | 5007 ft | 239 kts | 26° |
| 2026-04-22 20:14 | 51.01366 | -0.17678 | 5010 ft | 232 kts | 49° |
| 2026-04-22 20:14 | 51.02244 | -0.15589 | 5012 ft | 225 kts | 74° |
| 2026-04-22 20:14 | 51.02466 | -0.13172 | 5012 ft | 221 kts | 97° |
| 2026-04-22 20:15 | 51.02043 | -0.10887 | 5013 ft | 218 kts | 120° |
| 2026-04-22 20:15 | 51.01062 | -0.09080 | 5012 ft | 219 kts | 143° |
| 2026-04-22 20:15 | 50.99675 | -0.08063 | 5012 ft | 222 kts | 166° |
| 2026-04-22 20:15 | 50.98109 | -0.07982 | 5014 ft | 227 kts | 181° |
| 2026-04-22 20:16 | 50.96547 | -0.08212 | 5004 ft | 229 kts | 183° |
| 2026-04-22 20:16 | 50.94974 | -0.08503 | 5003 ft | 228 kts | 183° |
| 2026-04-22 20:16 | 50.93385 | -0.08808 | 5005 ft | 228 kts | 183° |
| 2026-04-22 20:16 | 50.91808 | -0.09108 | 5006 ft | 228 kts | 183° |
| 2026-04-22 20:17 | 50.90230 | -0.09526 | 4998 ft | 231 kts | 195° |
| 2026-04-22 20:17 | 50.88855 | -0.10833 | 5004 ft | 238 kts | 221° |
| 2026-04-22 20:17 | 50.87956 | -0.13057 | 5001 ft | 246 kts | 249° |
| 2026-04-22 20:17 | 50.87817 | -0.15757 | 5003 ft | 251 kts | 279° |
| 2026-04-22 20:18 | 50.88525 | -0.18266 | 5008 ft | 252 kts | 311° |
| 2026-04-22 20:18 | 50.89884 | -0.19922 | 4997 ft | 248 kts | 341° |
| 2026-04-22 20:18 | 50.91551 | -0.20375 | 5008 ft | 243 kts | 7° |
| 2026-04-22 20:18 | 50.93245 | -0.20135 | 5008 ft | 244 kts | 10° |
| 2026-04-22 20:19 | 50.94931 | -0.19839 | 5004 ft | 243 kts | 11° |
| 2026-04-22 20:19 | 50.96626 | -0.19525 | 5008 ft | 244 kts | 10° |
| 2026-04-22 20:19 | 50.98288 | -0.19217 | 5010 ft | 244 kts | 11° |
| 2026-04-22 20:19 | 50.99880 | -0.18423 | 5007 ft | 236 kts | 37° |
| 2026-04-22 20:20 | 51.01011 | -0.16652 | 5010 ft | 228 kts | 63° |
| 2026-04-22 20:20 | 51.01509 | -0.14305 | 5012 ft | 222 kts | 88° |
| 2026-04-22 20:20 | 51.01324 | -0.11975 | 5012 ft | 219 kts | 112° |
| 2026-04-22 20:20 | 51.00512 | -0.09971 | 5007 ft | 219 kts | 136° |
| 2026-04-22 20:21 | 50.99247 | -0.08587 | 5007 ft | 220 kts | 146° |
| 2026-04-22 20:21 | 50.98246 | -0.06813 | 5005 ft | 219 kts | 110° |
| 2026-04-22 20:21 | 50.98153 | -0.04428 | 5010 ft | 223 kts | 80° |
| 2026-04-22 20:21 | 50.98790 | -0.02171 | 5009 ft | 229 kts | 55° |
| 2026-04-22 20:22 | 51.00032 | -0.00584 | 5009 ft | 236 kts | 27° |
| 2026-04-22 20:22 | 51.01683 | -0.00179 | 5010 ft | 245 kts | 354° |
| 2026-04-22 20:22 | 51.03234 | -0.01252 | 5011 ft | 251 kts | 320° |
| 2026-04-22 20:22 | 51.04503 | -0.03198 | 5009 ft | 253 kts | 316° |
| 2026-04-22 20:23 | 51.05777 | -0.05171 | 5013 ft | 254 kts | 317° |
| 2026-04-22 20:23 | 51.06873 | -0.07343 | 4865 ft | 252 kts | 294° |
| 2026-04-22 20:23 | 51.07205 | -0.09992 | 4496 ft | 247 kts | 262° |
| 2026-04-22 20:23 | 51.06896 | -0.12665 | 4096 ft | 246 kts | 252° |
| 2026-04-22 20:24 | 51.06464 | -0.15307 | 3718 ft | 248 kts | 251° |
| 2026-04-22 20:24 | 51.06019 | -0.17959 | 3377 ft | 247 kts | 251° |
| 2026-04-22 20:24 | 51.05581 | -0.20601 | 3067 ft | 246 kts | 251° |
| 2026-04-22 20:24 | 51.05142 | -0.23239 | 3007 ft | 249 kts | 251° |
| 2026-04-22 20:25 | 51.04688 | -0.25913 | 3008 ft | 250 kts | 251° |
| 2026-04-22 20:25 | 51.04233 | -0.28592 | 3011 ft | 251 kts | 251° |
| 2026-04-22 20:25 | 51.03781 | -0.31266 | 3007 ft | 250 kts | 251° |
| 2026-04-22 20:25 | 51.03329 | -0.33938 | 3011 ft | 251 kts | 251° |
| 2026-04-22 20:26 | 51.02945 | -0.36195 | 3005 ft | 251 kts | 251° |
| 2026-04-22 20:26 | 51.02492 | -0.38873 | 3009 ft | 249 kts | 251° |
| 2026-04-22 20:26 | 51.02040 | -0.41542 | 3005 ft | 249 kts | 251° |
| 2026-04-22 20:26 | 51.01605 | -0.44120 | 3002 ft | 234 kts | 253° |
| 2026-04-22 20:27 | 51.01600 | -0.46619 | 2990 ft | 222 kts | 289° |
| 2026-04-22 20:27 | 51.02398 | -0.48619 | 3329 ft | 227 kts | 318° |
| 2026-04-22 20:27 | 51.03669 | -0.49981 | 3219 ft | 214 kts | 338° |
| 2026-04-22 20:27 | 51.04984 | -0.50982 | 3121 ft | 207 kts | 341° |
| 2026-04-22 20:28 | 51.06298 | -0.51875 | 3034 ft | 203 kts | 349° |
| 2026-04-22 20:28 | 51.07636 | -0.51979 | 3030 ft | 189 kts | 19° |
| 2026-04-22 20:28 | 51.08850 | -0.51325 | 3017 ft | 180 kts | 37° |
| 2026-04-22 20:28 | 51.09829 | -0.50183 | 3014 ft | 175 kts | 53° |
| 2026-04-22 20:29 | 51.10539 | -0.48657 | 3010 ft | 168 kts | 69° |
| 2026-04-22 20:29 | 51.10920 | -0.46933 | 3014 ft | 163 kts | 82° |
| 2026-04-22 20:29 | 51.11168 | -0.45167 | 3013 ft | 164 kts | 82° |
| 2026-04-22 20:29 | 51.11417 | -0.43397 | 2999 ft | 164 kts | 82° |
| 2026-04-22 20:30 | 51.11640 | -0.41811 | 2885 ft | 163 kts | 81° |
| 2026-04-22 20:30 | 51.11887 | -0.40054 | 2698 ft | 162 kts | 81° |
| 2026-04-22 20:30 | 51.12131 | -0.38314 | 2493 ft | 159 kts | 81° |
| 2026-04-22 20:30 | 51.12371 | -0.36600 | 2292 ft | 157 kts | 81° |
| 2026-04-22 20:31 | 51.12595 | -0.35001 | 2098 ft | 145 kts | 81° |
| 2026-04-22 20:31 | 51.12805 | -0.33500 | 1903 ft | 135 kts | 80° |
| 2026-04-22 20:31 | 51.13012 | -0.32014 | 1700 ft | 136 kts | 79° |
| 2026-04-22 20:31 | 51.13216 | -0.30550 | 1502 ft | 136 kts | 80° |
| 2026-04-22 20:32 | 51.13421 | -0.29078 | 1329 ft | 138 kts | 79° |
| 2026-04-22 20:32 | 51.13628 | -0.27588 | 1134 ft | 137 kts | 77° |
| 2026-04-22 20:32 | 51.13836 | -0.26088 | 937 ft | 141 kts | 77° |
| 2026-04-22 20:32 | 51.14040 | -0.24542 | 770 ft | 143 kts | 78° |
| 2026-04-22 20:33 | 51.14270 | -0.22987 | 644 ft | 144 kts | 77° |
| 2026-04-22 20:33 | 51.14481 | -0.21409 | 365 ft | 142 kts | 78° |
| 2026-04-22 20:33 | 51.14681 | -0.19975 | 212 ft | 122 kts | 77° |
| 2026-04-22 20:33 | 51.14767 | -0.19352 | 205 ft | 30 kts | 74° |
| 2026-04-22 20:34 | 51.14810 | -0.19049 | 205 ft | 27 kts | 77° |
| 2026-04-22 20:34 | 51.14853 | -0.18754 | 202 ft | 27 kts | 78° |
| 2026-04-22 20:34 | 51.14890 | -0.18474 | 206 ft | 25 kts | 78° |
| 2026-04-22 20:34 | 51.14926 | -0.18213 | 203 ft | 23 kts | 75° |
| 2026-04-22 20:35 | 51.14981 | -0.17987 | 210 ft | 22 kts | 63° |
| 2026-04-22 20:35 | 51.15063 | -0.17796 | 213 ft | 20 kts | 39° |
| 2026-04-22 20:35 | 51.15113 | -0.17764 | 209 ft | 0 kts | 13° |
| 2026-04-22 20:36 | 51.15121 | -0.17761 | 211 ft | 6 kts | 11° |
| 2026-04-22 20:36 | 51.15160 | -0.17725 | 216 ft | 6 kts | 48° |
| 2026-04-22 20:36 | 51.15190 | -0.17670 | 208 ft | 8 kts | 49° |